Time;durP1;ratioP1;P1;durP2;ratioP2;P2;SDS_P1;SDS_P2;PMS_P1;PMS_P2;Temp;Humidity;BMP_temperature;BMP_pressure;BME280_temperature;BME280_humidity;BME280_pressure;Samples;Min_cycle;Max_cycle;Signal;HPM_P1;HPM_P2
2021/01/21 00:01:07;;;;;;;39.70;26.98;;;;;;;;;;5053661;28;20048;-85
2021/01/21 00:03:33;;;;;;;51.47;35.72;;;;;;;;;;5053396;28;20040;-88
2021/01/21 00:06:00;;;;;;;77.28;49.50;;;;;;;;;;5053525;28;20025;-84
2021/01/21 00:08:27;;;;;;;62.53;42.78;;;;;;;;;;5053555;28;20025;-87
2021/01/21 00:10:53;;;;;;;112.43;68.38;;;;;;;;;;5053451;28;20474;-88
2021/01/21 00:13:19;;;;;;;98.65;62.42;;;;;;;;;;5053603;28;20025;-87
2021/01/21 00:16:05;;;;;;;96.63;64.10;;;;;;;;;;5053320;28;20439;-86
2021/01/21 00:18:33;;;;;;;94.18;61.33;;;;;;;;;;5053373;28;20052;-85
2021/01/21 00:20:59;;;;;;;98.63;58.15;;;;;;;;;;5053359;28;20113;-87
2021/01/21 00:23:25;;;;;;;84.95;51.75;;;;;;;;;;5053446;28;20056;-88
2021/01/21 00:25:51;;;;;;;90.18;55.63;;;;;;;;;;5052476;28;20025;-86
2021/01/21 00:28:20;;;;;;;85.28;52.67;;;;;;;;;;5036497;28;20462;-87
2021/01/21 00:30:46;;;;;;;87.63;55.97;;;;;;;;;;5053185;28;20033;-86
2021/01/21 00:33:12;;;;;;;70.90;40.33;;;;;;;;;;5053066;28;20040;-87
2021/01/21 00:35:38;;;;;;;63.83;40.22;;;;;;;;;;5053024;28;20037;-88
2021/01/21 00:38:05;;;;;;;61.08;39.78;;;;;;;;;;5052990;28;20060;-85
2021/01/21 00:40:31;;;;;;;43.45;26.73;;;;;;;;;;5055146;28;20055;-83
2021/01/21 00:42:57;;;;;;;36.75;22.90;;;;;;;;;;5095237;28;20028;-86
2021/01/21 00:45:23;;;;;;;60.97;33.35;;;;;;;;;;5094961;28;20047;-88
2021/01/21 00:47:50;;;;;;;49.85;29.90;;;;;;;;;;5094927;28;20043;-86
2021/01/21 00:50:16;;;;;;;42.83;28.75;;;;;;;;;;5076902;28;20030;-89
2021/01/21 00:52:42;;;;;;;58.40;36.33;;;;;;;;;;5094810;28;20494;-85
2021/01/21 00:55:08;;;;;;;66.13;47.80;;;;;;;;;;5094744;28;20024;-84
2021/01/21 00:57:34;;;;;;;79.47;50.97;;;;;;;;;;5094642;28;20098;-83
2021/01/21 01:00:00;;;;;;;52.60;32.25;;;;;;;;;;5094623;28;20046;-86
2021/01/21 01:02:27;;;;;;;54.20;36.35;;;;;;;;;;5076633;28;20102;-89
2021/01/21 01:04:53;;;;;;;51.97;35.25;;;;;;;;;;5094682;28;20032;-87
2021/01/21 01:07:19;;;;;;;49.20;31.55;;;;;;;;;;5094756;28;20020;-86
2021/01/21 01:09:45;;;;;;;58.47;35.38;;;;;;;;;;5076444;28;20031;-87
2021/01/21 01:12:11;;;;;;;50.05;31.48;;;;;;;;;;5076436;28;20058;-85
2021/01/21 01:14:37;;;;;;;60.92;35.13;;;;;;;;;;5094408;28;20107;-86
2021/01/21 01:17:03;;;;;;;52.63;32.35;;;;;;;;;;5076211;28;20490;-84
2021/01/21 01:19:29;;;;;;;60.08;37.97;;;;;;;;;;5076301;28;20035;-84
2021/01/21 01:21:55;;;;;;;58.85;37.92;;;;;;;;;;5076219;28;20023;-86
2021/01/21 01:24:21;;;;;;;46.97;30.67;;;;;;;;;;5094413;28;20028;-87
2021/01/21 01:26:49;;;;;;;34.92;23.92;;;;;;;;;;5094248;28;20031;-86
2021/01/21 01:29:15;;;;;;;38.45;25.17;;;;;;;;;;5094184;28;20024;-85
2021/01/21 01:31:41;;;;;;;37.13;25.20;;;;;;;;;;5094055;28;20107;-84
2021/01/21 01:34:07;;;;;;;46.67;29.45;;;;;;;;;;5094467;28;20035;-89
2021/01/21 01:36:34;;;;;;;45.72;30.52;;;;;;;;;;5094297;28;20525;-87
2021/01/21 01:39:00;;;;;;;51.42;33.10;;;;;;;;;;5094275;28;20046;-86
2021/01/21 01:41:29;;;;;;;57.80;38.20;;;;;;;;;;5093854;28;20028;-86
2021/01/21 01:43:55;;;;;;;64.78;41.70;;;;;;;;;;5075750;28;20028;-84
2021/01/21 01:46:23;;;;;;;59.95;39.13;;;;;;;;;;5093976;28;20024;-88
2021/01/21 01:48:49;;;;;;;100.40;61.08;;;;;;;;;;5093850;28;20024;-85
2021/01/21 01:51:15;;;;;;;64.00;37.70;;;;;;;;;;5094013;28;20498;-89
2021/01/21 01:53:41;;;;;;;72.85;41.67;;;;;;;;;;5093700;28;20021;-86
2021/01/21 01:56:07;;;;;;;70.57;41.05;;;;;;;;;;5093456;28;20054;-86
2021/01/21 01:58:33;;;;;;;63.83;39.42;;;;;;;;;;5093510;28;20086;-84
2021/01/21 02:01:00;;;;;;;71.82;43.33;;;;;;;;;;5093709;28;20047;-87
2021/01/21 02:03:26;;;;;;;71.68;42.38;;;;;;;;;;5075525;28;20356;-86
2021/01/21 02:05:52;;;;;;;56.50;34.25;;;;;;;;;;5093719;28;20459;-87
2021/01/21 02:08:37;;;;;;;46.38;29.27;;;;;;;;;;5093605;28;20099;-84
2021/01/21 02:11:08;;;;;;;44.92;27.80;;;;;;;;;;5093588;28;20051;-84
2021/01/21 02:13:46;;;;;;;136.35;73.30;;;;;;;;;;5093436;28;20097;-88
2021/01/21 02:16:30;;;;;;;115.53;66.00;;;;;;;;;;5093624;28;20024;-86
2021/01/21 02:19:02;;;;;;;98.80;57.28;;;;;;;;;;5093287;28;20214;-87
2021/01/21 02:21:47;;;;;;;81.28;47.00;;;;;;;;;;5093324;28;20024;-87
2021/01/21 02:24:13;;;;;;;;;;;;;;;;;;5093928;28;20024;-86
2021/01/21 02:26:50;;;;;;;81.22;48.70;;;;;;;;;;5093252;28;19904;-89
2021/01/21 02:29:28;;;;;;;54.28;34.65;;;;;;;;;;5075359;28;20107;-87
2021/01/21 02:32:13;;;;;;;41.40;29.65;;;;;;;;;;5093493;28;20028;-87
2021/01/21 02:34:39;;;;;;;37.50;24.23;;;;;;;;;;5093197;28;20060;-86
2021/01/21 02:37:07;;;;;;;36.60;24.20;;;;;;;;;;5093203;28;20028;-88
2021/01/21 02:39:33;;;;;;;38.30;24.35;;;;;;;;;;5093348;28;20368;-87
2021/01/21 02:41:59;;;;;;;38.90;27.30;;;;;;;;;;5093228;28;20032;-86
2021/01/21 02:44:29;;;;;;;44.08;27.55;;;;;;;;;;5075464;28;20028;-85
2021/01/21 02:46:56;;;;;;;53.28;34.45;;;;;;;;;;5075145;28;20020;-85
2021/01/21 02:49:22;;;;;;;54.72;35.50;;;;;;;;;;5077917;28;20020;-85
2021/01/21 02:51:56;;;;;;;48.53;29.92;;;;;;;;;;5078802;28;20535;-87
2021/01/21 02:54:23;;;;;;;96.30;52.65;;;;;;;;;;5097150;28;20024;-86
2021/01/21 02:56:50;;;;;;;74.53;42.92;;;;;;;;;;5096852;28;20110;-84
2021/01/21 02:59:18;;;;;;;75.90;45.90;;;;;;;;;;5097017;28;20055;-87
2021/01/21 03:01:46;;;;;;;61.97;38.10;;;;;;;;;;5097094;28;20028;-86
2021/01/21 03:04:14;;;;;;;74.03;44.25;;;;;;;;;;5078940;28;20117;-87
2021/01/21 03:06:42;;;;;;;117.65;62.90;;;;;;;;;;5096951;28;20024;-89
2021/01/21 03:09:08;;;;;;;76.15;47.20;;;;;;;;;;5078682;28;20024;-88
2021/01/21 03:11:34;;;;;;;51.78;29.65;;;;;;;;;;5096949;28;20036;-88
2021/01/21 03:14:00;;;;;;;33.92;22.08;;;;;;;;;;5096934;28;20486;-85
2021/01/21 03:16:26;;;;;;;34.85;20.58;;;;;;;;;;5096869;28;20526;-88
2021/01/21 03:18:52;;;;;;;34.85;21.70;;;;;;;;;;5078473;28;20042;-85
2021/01/21 03:21:19;;;;;;;32.45;21.05;;;;;;;;;;5096612;28;20054;-87
2021/01/21 03:23:46;;;;;;;54.05;31.42;;;;;;;;;;5096570;28;20099;-85
2021/01/21 03:26:12;;;;;;;55.97;33.47;;;;;;;;;;5096732;28;20058;-84
2021/01/21 03:28:39;;;;;;;53.70;32.75;;;;;;;;;;5096578;28;20024;-84
2021/01/21 03:31:06;;;;;;;59.00;35.50;;;;;;;;;;5096511;28;20028;-87
2021/01/21 03:33:32;;;;;;;51.30;31.20;;;;;;;;;;5096267;28;20441;-85
2021/01/21 03:35:58;;;;;;;41.20;28.58;;;;;;;;;;5096565;28;20023;-86
2021/01/21 03:38:24;;;;;;;44.33;29.15;;;;;;;;;;5078116;28;20035;-88
2021/01/21 03:40:51;;;;;;;42.80;30.92;;;;;;;;;;5096334;28;20530;-88
2021/01/21 03:43:17;;;;;;;56.38;35.38;;;;;;;;;;5078107;28;20446;-83
2021/01/21 03:45:43;;;;;;;79.85;47.45;;;;;;;;;;5096324;28;20028;-84
2021/01/21 03:48:09;;;;;;;75.95;45.95;;;;;;;;;;5096169;28;20028;-84
2021/01/21 03:50:35;;;;;;;87.75;47.55;;;;;;;;;;5077931;28;20028;-84
2021/01/21 03:53:01;;;;;;;107.70;56.30;;;;;;;;;;5078056;28;20028;-86
2021/01/21 03:55:27;;;;;;;97.10;51.40;;;;;;;;;;5095926;28;20036;-83
2021/01/21 03:57:53;;;;;;;100.93;54.17;;;;;;;;;;5095938;28;20089;-85
2021/01/21 04:00:20;;;;;;;71.25;38.70;;;;;;;;;;5094826;28;20471;-83
2021/01/21 04:02:46;;;;;;;59.92;33.33;;;;;;;;;;5077704;28;20024;-88
2021/01/21 04:05:12;;;;;;;97.80;50.08;;;;;;;;;;5095829;28;20117;-87
2021/01/21 04:07:38;;;;;;;85.32;44.47;;;;;;;;;;5095865;28;20042;-85
2021/01/21 04:10:04;;;;;;;53.47;32.85;;;;;;;;;;5096001;28;20020;-86
2021/01/21 04:12:30;;;;;;;44.22;26.92;;;;;;;;;;5077525;28;20027;-88
2021/01/21 04:14:57;;;;;;;36.25;22.92;;;;;;;;;;5095694;28;20062;-85
2021/01/21 04:17:23;;;;;;;34.85;22.13;;;;;;;;;;5095648;28;20508;-89
2021/01/21 04:19:49;;;;;;;38.63;24.85;;;;;;;;;;5095651;28;20028;-86
2021/01/21 04:22:15;;;;;;;43.83;30.35;;;;;;;;;;5077591;28;20028;-86
2021/01/21 04:24:41;;;;;;;38.08;25.55;;;;;;;;;;5077452;28;20024;-85
2021/01/21 04:27:07;;;;;;;36.47;23.73;;;;;;;;;;5095525;28;20039;-86
2021/01/21 04:29:33;;;;;;;33.42;21.73;;;;;;;;;;5095390;28;20095;-89
2021/01/21 04:31:59;;;;;;;41.08;23.02;;;;;;;;;;5095356;28;20382;-88
2021/01/21 04:34:25;;;;;;;38.83;22.40;;;;;;;;;;5076969;28;20036;-89
2021/01/21 04:36:51;;;;;;;45.17;26.92;;;;;;;;;;5077074;28;20024;-85
2021/01/21 04:39:17;;;;;;;69.95;37.83;;;;;;;;;;5076956;28;20375;-86
2021/01/21 04:41:44;;;;;;;44.65;28.40;;;;;;;;;;5095195;28;20020;-88
2021/01/21 04:44:10;;;;;;;29.17;18.83;;;;;;;;;;5076870;28;20032;-88
2021/01/21 04:46:36;;;;;;;29.35;18.77;;;;;;;;;;5076924;28;20024;-87
2021/01/21 04:49:02;;;;;;;27.33;16.90;;;;;;;;;;5076815;28;20020;-87
2021/01/21 04:51:30;;;;;;;23.52;13.75;;;;;;;;;;5076778;28;20391;-87
2021/01/21 04:54:00;;;;;;;22.23;14.93;;;;;;;;;;5094841;28;20030;-87
2021/01/21 04:56:30;;;;;;;24.88;17.30;;;;;;;;;;5076533;28;20134;-88
2021/01/21 04:58:58;;;;;;;32.78;20.65;;;;;;;;;;5076630;28;20042;-88
2021/01/21 05:01:24;;;;;;;34.75;20.65;;;;;;;;;;5094792;28;20058;-87
2021/01/21 05:03:51;;;;;;;30.88;18.98;;;;;;;;;;5076510;28;20036;-88
2021/01/21 05:06:17;;;;;;;30.20;19.70;;;;;;;;;;5094581;28;20024;-86
2021/01/21 05:08:43;;;;;;;30.10;18.45;;;;;;;;;;5076521;28;20077;-86
2021/01/21 05:11:09;;;;;;;33.58;20.05;;;;;;;;;;5076089;28;20111;-89
2021/01/21 05:13:36;;;;;;;33.83;20.80;;;;;;;;;;5093354;28;20019;-86
2021/01/21 05:16:02;;;;;;;31.63;23.10;;;;;;;;;;5094514;28;20032;-84
2021/01/21 05:18:29;;;;;;;36.72;24.00;;;;;;;;;;5094402;28;20039;-87
2021/01/21 05:20:55;;;;;;;35.90;24.08;;;;;;;;;;5094507;28;20028;-85
2021/01/21 05:23:23;;;;;;;55.55;34.20;;;;;;;;;;5093188;28;20035;-87
2021/01/21 05:25:49;;;;;;;59.58;37.22;;;;;;;;;;5093063;28;20028;-86
2021/01/21 05:28:16;;;;;;;46.60;29.67;;;;;;;;;;5094169;28;20020;-85
2021/01/21 05:30:42;;;;;;;69.15;43.75;;;;;;;;;;5094280;28;20476;-87
2021/01/21 05:33:08;;;;;;;69.47;42.40;;;;;;;;;;5092804;28;20064;-84
2021/01/21 05:35:34;;;;;;;73.07;48.20;;;;;;;;;;5092862;28;20070;-87
2021/01/21 05:38:01;;;;;;;90.32;58.08;;;;;;;;;;5092846;28;20067;-86
2021/01/21 05:40:30;;;;;;;67.25;43.80;;;;;;;;;;5075881;28;20054;-87
2021/01/21 05:42:57;;;;;;;81.25;48.78;;;;;;;;;;5075820;28;20074;-88
2021/01/21 05:45:24;;;;;;;55.25;36.25;;;;;;;;;;5093873;28;20024;-83
2021/01/21 05:48:01;;;;;;;55.97;35.22;;;;;;;;;;5094059;28;20050;-83
2021/01/21 05:50:28;;;;;;;63.03;40.47;;;;;;;;;;5075738;28;20030;-83
2021/01/21 05:52:55;;;;;;;58.53;37.85;;;;;;;;;;5093656;28;20024;-83
2021/01/21 05:55:24;;;;;;;58.50;38.95;;;;;;;;;;5093567;28;20051;-83
2021/01/21 05:57:51;;;;;;;48.63;30.92;;;;;;;;;;5093589;28;20090;-82
2021/01/21 06:00:18;;;;;;;44.15;30.23;;;;;;;;;;5093677;28;20480;-82
2021/01/21 06:02:45;;;;;;;33.83;23.50;;;;;;;;;;5075422;28;20471;-82
2021/01/21 06:05:18;;;;;;;34.00;23.10;;;;;;;;;;5075389;28;20029;-81
2021/01/21 06:07:45;;;;;;;81.50;51.22;;;;;;;;;;5093772;28;20038;-82
2021/01/21 06:10:13;;;;;;;126.47;72.00;;;;;;;;;;5093424;28;20028;-80
2021/01/21 06:12:39;;;;;;;110.13;65.28;;;;;;;;;;5093699;28;20109;-81
2021/01/21 06:15:06;;;;;;;81.03;48.20;;;;;;;;;;5093444;28;20039;-81
2021/01/21 06:17:32;;;;;;;75.07;46.33;;;;;;;;;;5093564;28;20023;-81
2021/01/21 06:19:58;;;;;;;76.78;48.88;;;;;;;;;;5093338;28;20035;-81
2021/01/21 06:22:29;;;;;;;103.45;63.97;;;;;;;;;;5093245;28;20024;-81
2021/01/21 06:24:59;;;;;;;152.65;93.65;;;;;;;;;;5074953;28;20433;-83
2021/01/21 06:27:26;;;;;;;88.10;56.65;;;;;;;;;;5093541;28;20463;-86
2021/01/21 06:29:55;;;;;;;85.82;52.25;;;;;;;;;;5093927;28;20060;-86
2021/01/21 06:32:24;;;;;;;131.57;74.60;;;;;;;;;;5104831;28;20398;-86
2021/01/21 06:34:51;;;;;;;136.30;77.82;;;;;;;;;;5112020;28;20040;-85
2021/01/21 06:37:21;;;;;;;122.72;66.78;;;;;;;;;;5093448;28;20371;-82
2021/01/21 06:40:06;;;;;;;133.88;70.60;;;;;;;;;;5111826;28;20028;-81
2021/01/21 06:42:32;;;;;;;;;;;;;;;;;;5111195;28;20035;-79
2021/01/21 06:44:59;;;;;;;64.88;38.20;;;;;;;;;;5111445;28;19904;-86
2021/01/21 06:47:25;;;;;;;118.30;63.58;;;;;;;;;;5093558;28;20152;-85
2021/01/21 06:50:11;;;;;;;112.32;64.18;;;;;;;;;;5092588;28;20439;-89
2021/01/21 06:52:38;;;;;;;78.88;48.13;;;;;;;;;;5088798;28;20067;-87
2021/01/21 06:55:04;;;;;;;90.80;54.90;;;;;;;;;;5088728;28;20053;-84
2021/01/21 06:57:34;;;;;;;97.47;60.92;;;;;;;;;;5091224;28;20040;-82
2021/01/21 07:00:06;;;;;;;66.03;37.67;;;;;;;;;;5073548;28;20384;-84
2021/01/21 07:02:42;;;;;;;55.47;36.10;;;;;;;;;;5089070;28;20101;-86
2021/01/21 07:05:10;;;;;;;57.85;37.33;;;;;;;;;;5071336;28;20043;-87
2021/01/21 07:08:03;;;;;;;79.88;51.92;;;;;;;;;;5067873;28;20033;-87
2021/01/21 07:10:32;;;;;;;83.75;52.90;;;;;;;;;;5051650;28;20028;-86
2021/01/21 07:13:00;;;;;;;48.88;30.70;;;;;;;;;;5089055;28;20028;-88
2021/01/21 07:15:34;;;;;;;34.35;23.63;;;;;;;;;;5070792;28;20028;-85
2021/01/21 07:18:11;;;;;;;34.65;23.85;;;;;;;;;;5070899;28;20391;-87
2021/01/21 07:20:57;;;;;;;37.05;25.52;;;;;;;;;;5072450;28;20028;-87
2021/01/21 07:23:45;;;;;;;37.97;24.00;;;;;;;;;;5089965;28;20035;-89
2021/01/21 07:26:30;;;;;;;43.08;28.27;;;;;;;;;;5072913;28;20086;-89
2021/01/21 07:29:02;;;;;;;44.17;29.35;;;;;;;;;;5060217;28;20501;-87
2021/01/21 07:31:29;;;;;;;46.95;30.50;;;;;;;;;;5052044;28;20025;-85
2021/01/21 07:34:13;;;;;;;66.20;43.83;;;;;;;;;;5071271;28;20036;-90
2021/01/21 07:36:43;;;;;;;82.00;52.63;;;;;;;;;;5057112;28;20099;-94
2021/01/21 07:39:09;;;;;;;73.60;47.50;;;;;;;;;;5056878;28;20102;-90
2021/01/21 07:41:47;;;;;;;60.25;40.78;;;;;;;;;;5056464;28;20025;-86
2021/01/21 07:44:13;;;;;;;48.40;31.85;;;;;;;;;;5074527;28;20031;-90
2021/01/21 07:46:40;;;;;;;47.90;32.63;;;;;;;;;;5056295;28;20028;-90
2021/01/21 07:49:25;;;;;;;41.97;28.80;;;;;;;;;;5056300;28;20039;-87
2021/01/21 07:52:01;;;;;;;49.85;35.20;;;;;;;;;;5074082;28;20024;-88
2021/01/21 07:54:28;;;;;;;59.05;41.10;;;;;;;;;;5056104;28;20032;-88
2021/01/21 07:56:54;;;;;;;70.60;47.47;;;;;;;;;;5070752;28;20387;-86
2021/01/21 07:59:20;;;;;;;54.92;36.53;;;;;;;;;;5078912;28;20126;-85
2021/01/21 08:02:05;;;;;;;45.67;30.90;;;;;;;;;;5083632;28;20100;-88
2021/01/21 08:04:34;;;;;;;;;;;;;;;;;;5075804;28;20750;-86
2021/01/21 08:07:01;;;;;;;61.45;42.72;;;;;;;;;;5093861;28;19908;-88
2021/01/21 08:09:29;;;;;;;70.57;43.40;;;;;;;;;;5076293;28;20039;-88
2021/01/21 08:11:55;;;;;;;54.03;38.17;;;;;;;;;;5076199;28;20024;-84
2021/01/21 08:14:22;;;;;;;62.72;41.38;;;;;;;;;;5075900;28;20024;-89
2021/01/21 08:17:03;;;;;;;118.65;83.85;;;;;;;;;;5075202;28;20032;-86
2021/01/21 08:19:30;;;;;;;165.35;110.88;;;;;;;;;;5093159;28;20079;-85
2021/01/21 08:22:14;;;;;;;222.45;148.70;;;;;;;;;;5093377;28;20483;-89
2021/01/21 08:25:00;;;;;;;99.55;67.38;;;;;;;;;;5092561;28;20432;-83
2021/01/21 08:27:48;;;;;;;73.05;48.50;;;;;;;;;;5082152;28;20027;-83
2021/01/21 08:30:33;;;;;;;57.42;37.97;;;;;;;;;;5113534;28;20536;-85
2021/01/21 08:33:02;;;;;;;92.55;61.38;;;;;;;;;;5113176;28;20035;-86
2021/01/21 08:35:30;;;;;;;191.95;125.95;;;;;;;;;;5114142;28;20024;-84
2021/01/21 08:37:57;;;;;;;150.85;106.10;;;;;;;;;;5113418;28;20039;-85
2021/01/21 08:40:24;;;;;;;90.95;62.35;;;;;;;;;;5113387;28;20099;-83
2021/01/21 08:42:51;;;;;;;58.17;41.00;;;;;;;;;;5113228;28;20092;-86
2021/01/21 08:45:18;;;;;;;50.85;38.83;;;;;;;;;;5114036;28;20039;-89
2021/01/21 08:47:48;;;;;;;88.10;59.10;;;;;;;;;;5113485;28;20024;-88
2021/01/21 08:50:15;;;;;;;183.77;129.45;;;;;;;;;;5105063;28;20031;-87
2021/01/21 08:53:00;;;;;;;175.75;119.18;;;;;;;;;;5084745;28;20027;-87
2021/01/21 08:55:26;;;;;;;;;;;;;;;;;;5104519;28;20123;-74
2021/01/21 08:58:03;;;;;;;78.28;55.35;;;;;;;;;;5088101;28;20023;-86
2021/01/21 09:00:30;;;;;;;127.50;90.20;;;;;;;;;;5087501;28;20080;-87
2021/01/21 09:02:57;;;;;;;198.65;140.98;;;;;;;;;;5101394;28;20027;-86
2021/01/21 09:05:23;;;;;;;148.80;106.57;;;;;;;;;;5102547;28;20028;-85
2021/01/21 09:07:50;;;;;;;110.43;82.60;;;;;;;;;;5107792;28;20020;-86
2021/01/21 09:10:16;;;;;;;105.38;71.50;;;;;;;;;;5095078;28;20035;-87
2021/01/21 09:12:43;;;;;;;159.05;111.63;;;;;;;;;;5094015;28;20027;-86
2021/01/21 09:15:10;;;;;;;178.40;116.95;;;;;;;;;;5083904;28;20110;-87
2021/01/21 09:17:37;;;;;;;159.63;108.22;;;;;;;;;;5097168;28;20085;-87
2021/01/21 09:20:18;;;;;;;137.95;95.72;;;;;;;;;;5092517;28;20429;-89
2021/01/21 09:22:44;;;;;;;197.13;133.77;;;;;;;;;;5075204;28;20548;-85
2021/01/21 09:25:10;;;;;;;195.00;133.85;;;;;;;;;;5075209;28;20031;-88
2021/01/21 09:27:37;;;;;;;156.93;113.13;;;;;;;;;;5076638;28;20016;-88
2021/01/21 09:30:11;;;;;;;176.30;120.93;;;;;;;;;;5095291;28;20024;-87
2021/01/21 09:32:39;;;;;;;160.52;114.30;;;;;;;;;;5095468;28;20028;-89
2021/01/21 09:35:06;;;;;;;117.68;85.93;;;;;;;;;;5094603;28;20080;-84
2021/01/21 09:37:37;;;;;;;108.03;75.22;;;;;;;;;;5094471;28;20081;-86
2021/01/21 09:40:13;;;;;;;141.00;100.63;;;;;;;;;;5093331;28;20042;-85
2021/01/21 09:42:40;;;;;;;131.13;93.70;;;;;;;;;;5112379;28;20064;-83
2021/01/21 09:45:07;;;;;;;130.73;89.53;;;;;;;;;;5093486;28;20023;-84
2021/01/21 09:47:33;;;;;;;149.18;103.55;;;;;;;;;;5112155;28;20443;-81
2021/01/21 09:50:00;;;;;;;115.80;82.38;;;;;;;;;;5111663;28;20482;-87
2021/01/21 09:52:26;;;;;;;88.35;62.15;;;;;;;;;;5111455;28;20030;-83
2021/01/21 09:54:52;;;;;;;86.43;61.30;;;;;;;;;;5111675;28;20027;-84
2021/01/21 09:57:19;;;;;;;65.63;47.85;;;;;;;;;;5111185;28;20051;-89
2021/01/21 09:59:45;;;;;;;50.72;36.63;;;;;;;;;;5093497;28;20031;-82
2021/01/21 10:02:11;;;;;;;46.17;32.55;;;;;;;;;;5111458;28;20445;-82
2021/01/21 10:04:39;;;;;;;54.30;38.40;;;;;;;;;;5111612;28;20070;-83
2021/01/21 10:07:05;;;;;;;47.78;34.00;;;;;;;;;;5111430;28;20055;-83
2021/01/21 10:09:32;;;;;;;66.55;43.92;;;;;;;;;;5092828;28;20034;-82
2021/01/21 10:11:59;;;;;;;59.55;41.22;;;;;;;;;;5111470;28;20467;-82
2021/01/21 10:14:25;;;;;;;42.28;29.35;;;;;;;;;;5111601;28;20076;-83
2021/01/21 10:16:51;;;;;;;28.58;21.00;;;;;;;;;;5111453;28;20038;-83
2021/01/21 10:19:17;;;;;;;28.95;21.77;;;;;;;;;;5110994;28;20043;-82
2021/01/21 10:21:43;;;;;;;45.35;31.95;;;;;;;;;;5111522;28;20024;-80
2021/01/21 10:24:10;;;;;;;34.47;24.95;;;;;;;;;;5111277;28;20063;-83
2021/01/21 10:26:36;;;;;;;49.22;35.33;;;;;;;;;;5111503;28;20031;-83
2021/01/21 10:29:02;;;;;;;32.70;24.58;;;;;;;;;;5111184;28;20031;-81
2021/01/21 10:31:28;;;;;;;33.17;23.63;;;;;;;;;;5111252;28;20028;-83
2021/01/21 10:33:54;;;;;;;31.17;23.48;;;;;;;;;;5111459;28;20020;-83
2021/01/21 10:36:20;;;;;;;36.67;26.40;;;;;;;;;;5111079;28;20036;-83
2021/01/21 10:38:46;;;;;;;29.83;21.52;;;;;;;;;;5111094;28;20032;-85
2021/01/21 10:41:12;;;;;;;30.45;21.20;;;;;;;;;;5111057;28;20023;-83
2021/01/21 10:43:39;;;;;;;25.13;18.25;;;;;;;;;;5110929;28;20059;-84
2021/01/21 10:46:05;;;;;;;35.75;27.55;;;;;;;;;;5105388;28;20036;-83
2021/01/21 10:48:31;;;;;;;29.45;22.65;;;;;;;;;;5111092;28;20386;-83
2021/01/21 10:50:58;;;;;;;19.55;14.43;;;;;;;;;;5111010;28;20051;-82
2021/01/21 10:53:24;;;;;;;17.67;11.70;;;;;;;;;;5110844;28;20057;-82
2021/01/21 10:55:50;;;;;;;20.30;13.18;;;;;;;;;;5111146;28;20050;-86
2021/01/21 10:58:17;;;;;;;16.60;12.55;;;;;;;;;;5108435;28;20054;-85
2021/01/21 11:00:47;;;;;;;19.08;14.05;;;;;;;;;;5092832;28;20034;-84
2021/01/21 11:03:16;;;;;;;17.67;13.05;;;;;;;;;;5092716;28;20420;-85
2021/01/21 11:05:44;;;;;;;18.20;13.45;;;;;;;;;;5106315;28;20471;-86
2021/01/21 11:08:10;;;;;;;15.13;12.43;;;;;;;;;;5084703;28;20066;-86
2021/01/21 11:10:37;;;;;;;20.27;13.30;;;;;;;;;;5107166;28;20114;-85
2021/01/21 11:13:03;;;;;;;18.27;12.23;;;;;;;;;;5110714;28;20386;-86
2021/01/21 11:15:29;;;;;;;16.65;11.45;;;;;;;;;;5109575;28;20090;-83
2021/01/21 11:17:56;;;;;;;17.70;12.82;;;;;;;;;;5103200;28;20067;-83
2021/01/21 11:20:22;;;;;;;15.80;11.55;;;;;;;;;;5102798;28;20524;-84
2021/01/21 11:22:48;;;;;;;19.60;13.20;;;;;;;;;;5108892;28;20058;-82
2021/01/21 11:25:14;;;;;;;40.00;26.88;;;;;;;;;;5094356;28;20032;-84
2021/01/21 11:27:44;;;;;;;29.30;21.33;;;;;;;;;;5094160;28;20035;-84
2021/01/21 11:30:11;;;;;;;17.88;13.15;;;;;;;;;;5094008;28;20023;-86
2021/01/21 11:32:37;;;;;;;18.08;13.10;;;;;;;;;;5093794;28;20036;-84
2021/01/21 11:35:04;;;;;;;14.30;11.18;;;;;;;;;;5094214;28;20490;-85
2021/01/21 11:37:30;;;;;;;15.13;11.50;;;;;;;;;;5093480;28;20032;-85
2021/01/21 11:39:56;;;;;;;15.57;10.90;;;;;;;;;;5075327;28;20077;-83
2021/01/21 11:42:23;;;;;;;16.40;10.23;;;;;;;;;;5094259;28;20024;-84
2021/01/21 11:44:51;;;;;;;16.23;10.88;;;;;;;;;;5094053;28;20059;-83
2021/01/21 11:47:17;;;;;;;13.43;10.82;;;;;;;;;;5095080;28;20032;-86
2021/01/21 11:49:43;;;;;;;21.63;16.13;;;;;;;;;;5076026;28;20131;-82
2021/01/21 11:52:09;;;;;;;23.58;16.58;;;;;;;;;;5075485;28;20118;-82
2021/01/21 11:54:36;;;;;;;21.13;14.35;;;;;;;;;;5075486;28;20048;-82
2021/01/21 11:57:02;;;;;;;22.73;17.08;;;;;;;;;;5107941;28;20139;-81
2021/01/21 11:59:28;;;;;;;30.67;23.48;;;;;;;;;;5095105;28;20063;-82
2021/01/21 12:01:54;;;;;;;27.45;22.55;;;;;;;;;;5113824;28;20030;-79
2021/01/21 12:04:20;;;;;;;29.92;24.08;;;;;;;;;;5107679;28;20032;-82
2021/01/21 12:06:48;;;;;;;28.35;21.75;;;;;;;;;;5095727;28;20024;-84
2021/01/21 12:09:14;;;;;;;29.17;21.27;;;;;;;;;;5088281;28;20059;-83
2021/01/21 12:11:40;;;;;;;26.02;18.98;;;;;;;;;;5103283;28;20482;-81
2021/01/21 12:14:06;;;;;;;25.33;17.38;;;;;;;;;;5093190;28;20028;-82
2021/01/21 12:16:32;;;;;;;21.08;14.30;;;;;;;;;;5094179;28;20097;-82
2021/01/21 12:18:58;;;;;;;27.63;21.77;;;;;;;;;;5098338;28;20055;-82
2021/01/21 12:21:24;;;;;;;34.55;24.70;;;;;;;;;;5112959;28;20382;-82
2021/01/21 12:23:51;;;;;;;38.80;29.13;;;;;;;;;;5114141;28;20512;-82
2021/01/21 12:26:17;;;;;;;37.75;23.77;;;;;;;;;;5107215;28;20039;-81
2021/01/21 12:28:43;;;;;;;21.38;16.38;;;;;;;;;;5093898;28;20505;-83
2021/01/21 12:31:09;;;;;;;29.30;20.35;;;;;;;;;;5093675;28;20093;-83
2021/01/21 12:33:36;;;;;;;29.05;20.80;;;;;;;;;;5094343;28;20024;-82
2021/01/21 12:36:05;;;;;;;29.88;20.73;;;;;;;;;;5095096;28;20126;-82
2021/01/21 12:38:31;;;;;;;31.30;21.63;;;;;;;;;;5094862;28;20063;-82
2021/01/21 12:40:57;;;;;;;31.23;20.90;;;;;;;;;;5094987;28;20485;-73
2021/01/21 12:43:24;;;;;;;31.00;19.63;;;;;;;;;;5094510;28;20020;-83
2021/01/21 12:45:50;;;;;;;24.35;16.50;;;;;;;;;;5095862;28;20043;-83
2021/01/21 12:48:20;;;;;;;19.83;15.40;;;;;;;;;;5094300;28;20023;-82
2021/01/21 12:50:47;;;;;;;18.35;11.65;;;;;;;;;;5093835;28;20028;-82
2021/01/21 12:53:13;;;;;;;14.98;9.48;;;;;;;;;;5093709;28;20027;-81
2021/01/21 12:55:39;;;;;;;13.15;10.20;;;;;;;;;;5075958;28;20073;-80
2021/01/21 12:58:05;;;;;;;12.57;9.75;;;;;;;;;;5097139;28;20051;-85
2021/01/21 13:00:31;;;;;;;13.60;9.63;;;;;;;;;;5096956;28;20023;-82
2021/01/21 13:02:57;;;;;;;14.18;11.20;;;;;;;;;;5114093;28;20038;-83
2021/01/21 13:05:24;;;;;;;11.30;8.45;;;;;;;;;;5113514;28;20027;-80
2021/01/21 13:07:50;;;;;;;18.92;10.93;;;;;;;;;;5113676;28;20389;-80
2021/01/21 13:10:16;;;;;;;13.20;9.60;;;;;;;;;;5113612;28;20032;-80
2021/01/21 13:12:45;;;;;;;19.17;13.60;;;;;;;;;;5093427;28;20471;-79
2021/01/21 13:15:12;;;;;;;24.63;18.27;;;;;;;;;;5092150;28;20044;-79
2021/01/21 13:17:38;;;;;;;15.95;12.10;;;;;;;;;;5100286;28;20020;-83
2021/01/21 13:20:05;;;;;;;12.32;9.27;;;;;;;;;;5100887;28;20109;-82
2021/01/21 13:22:32;;;;;;;12.48;10.48;;;;;;;;;;5112933;28;20122;-80
2021/01/21 13:24:58;;;;;;;11.27;9.27;;;;;;;;;;5113600;28;20035;-82
2021/01/21 13:27:24;;;;;;;28.63;21.85;;;;;;;;;;5113210;28;20023;-80
2021/01/21 13:29:50;;;;;;;13.02;10.40;;;;;;;;;;5102732;28;20027;-83
2021/01/21 13:32:16;;;;;;;16.50;11.40;;;;;;;;;;5092755;28;20075;-82
2021/01/21 13:34:42;;;;;;;14.35;10.93;;;;;;;;;;5091898;28;20390;-83
2021/01/21 13:37:09;;;;;;;13.57;9.32;;;;;;;;;;5092780;28;20028;-81
2021/01/21 13:39:35;;;;;;;12.77;9.55;;;;;;;;;;5092483;28;20543;-83
2021/01/21 13:42:01;;;;;;;15.27;10.75;;;;;;;;;;5093035;28;20387;-83
2021/01/21 13:44:27;;;;;;;13.68;10.25;;;;;;;;;;5092195;28;20486;-81
2021/01/21 13:46:54;;;;;;;14.93;11.00;;;;;;;;;;5091385;28;20023;-80
2021/01/21 13:49:20;;;;;;;12.95;9.38;;;;;;;;;;5092472;28;20107;-82
2021/01/21 13:51:46;;;;;;;11.55;8.85;;;;;;;;;;5092697;28;20479;-79
2021/01/21 13:54:12;;;;;;;12.02;9.27;;;;;;;;;;5092940;28;20027;-81
2021/01/21 13:56:38;;;;;;;20.58;13.18;;;;;;;;;;5103253;28;20048;-83
2021/01/21 13:59:04;;;;;;;21.42;14.15;;;;;;;;;;5104010;28;20039;-82
2021/01/21 14:01:33;;;;;;;20.58;15.32;;;;;;;;;;5098574;28;20110;-82
2021/01/21 14:03:59;;;;;;;30.20;18.63;;;;;;;;;;5097937;28;20023;-82
2021/01/21 14:06:25;;;;;;;20.75;14.35;;;;;;;;;;5100986;28;20471;-83
2021/01/21 14:08:51;;;;;;;20.75;15.30;;;;;;;;;;5092548;28;20032;-80
2021/01/21 14:11:18;;;;;;;21.10;14.25;;;;;;;;;;5092530;28;20490;-81
2021/01/21 14:13:44;;;;;;;25.10;13.63;;;;;;;;;;5092256;28;20024;-83
2021/01/21 14:16:12;;;;;;;17.30;12.02;;;;;;;;;;5096994;28;20046;-81
2021/01/21 14:18:38;;;;;;;17.38;11.20;;;;;;;;;;5111880;28;20057;-84
2021/01/21 14:21:04;;;;;;;13.63;10.18;;;;;;;;;;5100963;28;20024;-82